sensor_id;sensor_type;location;lat;lon;timestamp;pressure;altitude;pressure_sealevel;temperature;humidity
72120;BME280;59993;53.052;18.576;2022-08-21T00:02:14;100355.13;;;21.28;96.12
72120;BME280;59993;53.052;18.576;2022-08-21T00:04:40;100365.28;;;21.26;96.66
72120;BME280;59993;53.052;18.576;2022-08-21T00:07:05;100359.31;;;21.30;96.97
72120;BME280;59993;53.052;18.576;2022-08-21T00:09:31;100364.81;;;21.37;97.29
72120;BME280;59993;53.052;18.576;2022-08-21T00:11:56;100359.31;;;21.16;98.33
72120;BME280;59993;53.052;18.576;2022-08-21T00:14:22;100355.59;;;21.17;99.45
72120;BME280;59993;53.052;18.576;2022-08-21T00:16:47;100359.38;;;21.07;99.65
72120;BME280;59993;53.052;18.576;2022-08-21T00:19:13;100360.50;;;21.13;99.79
72120;BME280;59993;53.052;18.576;2022-08-21T00:21:39;100358.56;;;21.22;98.78
72120;BME280;59993;53.052;18.576;2022-08-21T00:24:05;100368.19;;;21.01;100.00
72120;BME280;59993;53.052;18.576;2022-08-21T00:26:30;100367.97;;;20.88;100.00
72120;BME280;59993;53.052;18.576;2022-08-21T00:28:56;100359.31;;;20.77;100.00
72120;BME280;59993;53.052;18.576;2022-08-21T00:31:21;100357.44;;;20.78;100.00
72120;BME280;59993;53.052;18.576;2022-08-21T00:33:47;100362.72;;;20.71;100.00
72120;BME280;59993;53.052;18.576;2022-08-21T00:36:13;100354.47;;;20.73;100.00
72120;BME280;59993;53.052;18.576;2022-08-21T00:38:39;100355.47;;;20.72;100.00
72120;BME280;59993;53.052;18.576;2022-08-21T00:41:07;100361.88;;;20.94;100.00
72120;BME280;59993;53.052;18.576;2022-08-21T00:43:35;100363.19;;;20.75;100.00
72120;BME280;59993;53.052;18.576;2022-08-21T00:46:01;100357.03;;;20.89;100.00
72120;BME280;59993;53.052;18.576;2022-08-21T00:48:28;100364.97;;;20.83;100.00
72120;BME280;59993;53.052;18.576;2022-08-21T00:50:55;100362.81;;;20.78;100.00
72120;BME280;59993;53.052;18.576;2022-08-21T00:53:22;100355.97;;;20.90;100.00
72120;BME280;59993;53.052;18.576;2022-08-21T00:55:49;100343.22;;;21.07;100.00
72120;BME280;59993;53.052;18.576;2022-08-21T00:58:16;100343.78;;;20.80;100.00
72120;BME280;59993;53.052;18.576;2022-08-21T01:03:22;100353.28;;;20.90;100.00
72120;BME280;59993;53.052;18.576;2022-08-21T01:05:48;100353.41;;;20.97;100.00
72120;BME280;59993;53.052;18.576;2022-08-21T01:08:16;100357.34;;;21.09;100.00
72120;BME280;59993;53.052;18.576;2022-08-21T01:10:42;100354.00;;;21.07;100.00
72120;BME280;59993;53.052;18.576;2022-08-21T01:13:10;100335.88;;;20.78;100.00
72120;BME280;59993;53.052;18.576;2022-08-21T01:15:39;100346.19;;;20.74;100.00
72120;BME280;59993;53.052;18.576;2022-08-21T01:18:09;100342.59;;;20.82;100.00
72120;BME280;59993;53.052;18.576;2022-08-21T01:20:37;100345.41;;;21.04;100.00
72120;BME280;59993;53.052;18.576;2022-08-21T01:23:05;100337.31;;;20.89;100.00
72120;BME280;59993;53.052;18.576;2022-08-21T01:25:31;100344.47;;;20.97;100.00
72120;BME280;59993;53.052;18.576;2022-08-21T01:27:59;100357.03;;;21.04;100.00
72120;BME280;59993;53.052;18.576;2022-08-21T01:30:27;100351.94;;;21.09;100.00
72120;BME280;59993;53.052;18.576;2022-08-21T01:32:54;100347.28;;;21.03;100.00
72120;BME280;59993;53.052;18.576;2022-08-21T01:35:21;100343.19;;;20.92;100.00
72120;BME280;59993;53.052;18.576;2022-08-21T01:37:48;100339.06;;;20.82;100.00
72120;BME280;59993;53.052;18.576;2022-08-21T01:40:14;100332.53;;;20.76;100.00
72120;BME280;59993;53.052;18.576;2022-08-21T01:42:42;100339.78;;;20.75;100.00
72120;BME280;59993;53.052;18.576;2022-08-21T01:45:08;100332.88;;;20.96;100.00
72120;BME280;59993;53.052;18.576;2022-08-21T01:47:34;100335.78;;;20.71;100.00
72120;BME280;59993;53.052;18.576;2022-08-21T01:50:00;100331.13;;;20.65;100.00
72120;BME280;59993;53.052;18.576;2022-08-21T01:52:26;100331.44;;;20.62;100.00
72120;BME280;59993;53.052;18.576;2022-08-21T01:54:52;100333.38;;;20.76;100.00
72120;BME280;59993;53.052;18.576;2022-08-21T01:57:17;100333.38;;;20.76;100.00
72120;BME280;59993;53.052;18.576;2022-08-21T01:59:43;100334.16;;;20.85;100.00
72120;BME280;59993;53.052;18.576;2022-08-21T02:02:09;100331.00;;;20.82;100.00
72120;BME280;59993;53.052;18.576;2022-08-21T02:04:34;100329.19;;;20.74;100.00
72120;BME280;59993;53.052;18.576;2022-08-21T02:07:01;100328.13;;;20.83;100.00
72120;BME280;59993;53.052;18.576;2022-08-21T02:09:27;100323.19;;;20.87;100.00
72120;BME280;59993;53.052;18.576;2022-08-21T02:11:53;100305.16;;;20.64;100.00
72120;BME280;59993;53.052;18.576;2022-08-21T02:14:19;100305.16;;;20.64;100.00
72120;BME280;59993;53.052;18.576;2022-08-21T02:16:46;100305.72;;;20.59;100.00
72120;BME280;59993;53.052;18.576;2022-08-21T02:19:13;100299.00;;;20.55;100.00
72120;BME280;59993;53.052;18.576;2022-08-21T02:21:40;100299.13;;;20.62;100.00
72120;BME280;59993;53.052;18.576;2022-08-21T02:24:07;100299.84;;;20.56;100.00
72120;BME280;59993;53.052;18.576;2022-08-21T02:26:32;100311.00;;;20.53;100.00
72120;BME280;59993;53.052;18.576;2022-08-21T02:28:58;100308.13;;;20.54;100.00
72120;BME280;59993;53.052;18.576;2022-08-21T02:31:24;100297.22;;;20.48;100.00
72120;BME280;59993;53.052;18.576;2022-08-21T02:33:50;100292.50;;;20.50;100.00
72120;BME280;59993;53.052;18.576;2022-08-21T02:36:16;100292.31;;;20.51;100.00
72120;BME280;59993;53.052;18.576;2022-08-21T02:38:42;100290.50;;;20.44;100.00
72120;BME280;59993;53.052;18.576;2022-08-21T02:41:12;100294.59;;;20.39;100.00
72120;BME280;59993;53.052;18.576;2022-08-21T02:43:38;100287.75;;;20.52;100.00
72120;BME280;59993;53.052;18.576;2022-08-21T02:46:08;100280.78;;;20.42;100.00
72120;BME280;59993;53.052;18.576;2022-08-21T02:48:34;100280.25;;;20.24;100.00
72120;BME280;59993;53.052;18.576;2022-08-21T02:51:03;100283.94;;;20.23;100.00
72120;BME280;59993;53.052;18.576;2022-08-21T02:53:29;100280.25;;;20.24;100.00
72120;BME280;59993;53.052;18.576;2022-08-21T02:55:57;100278.19;;;20.26;100.00
72120;BME280;59993;53.052;18.576;2022-08-21T02:58:26;100282.97;;;20.39;100.00
72120;BME280;59993;53.052;18.576;2022-08-21T03:00:52;100282.88;;;20.32;100.00
72120;BME280;59993;53.052;18.576;2022-08-21T03:03:18;100277.91;;;20.21;100.00
72120;BME280;59993;53.052;18.576;2022-08-21T03:05:47;100272.22;;;20.16;100.00
72120;BME280;59993;53.052;18.576;2022-08-21T03:08:14;100274.53;;;20.19;100.00
72120;BME280;59993;53.052;18.576;2022-08-21T03:10:43;100267.31;;;20.19;100.00
72120;BME280;59993;53.052;18.576;2022-08-21T03:13:10;100266.91;;;20.08;100.00
72120;BME280;59993;53.052;18.576;2022-08-21T03:15:37;100271.25;;;20.09;100.00
72120;BME280;59993;53.052;18.576;2022-08-21T03:18:03;100270.22;;;20.10;100.00
72120;BME280;59993;53.052;18.576;2022-08-21T03:20:30;100278.56;;;20.23;100.00
72120;BME280;59993;53.052;18.576;2022-08-21T03:22:58;100275.69;;;20.24;100.00
72120;BME280;59993;53.052;18.576;2022-08-21T03:25:25;100283.94;;;20.23;100.00
72120;BME280;59993;53.052;18.576;2022-08-21T03:27:51;100281.91;;;20.25;100.00
72120;BME280;59993;53.052;18.576;2022-08-21T03:30:19;100283.84;;;20.16;100.00
72120;BME280;59993;53.052;18.576;2022-08-21T03:32:49;100294.25;;;20.19;100.00
72120;BME280;59993;53.052;18.576;2022-08-21T03:35:16;100297.31;;;20.08;100.00
72120;BME280;59993;53.052;18.576;2022-08-21T03:37:42;100297.97;;;20.10;100.00
72120;BME280;59993;53.052;18.576;2022-08-21T03:40:08;100302.50;;;20.18;100.00
72120;BME280;59993;53.052;18.576;2022-08-21T03:42:34;100310.84;;;20.23;100.00
72120;BME280;59993;53.052;18.576;2022-08-21T03:45:00;100310.97;;;20.30;100.00
72120;BME280;59993;53.052;18.576;2022-08-21T03:47:26;100304.16;;;20.19;100.00
72120;BME280;59993;53.052;18.576;2022-08-21T03:49:51;100306.56;;;20.14;100.00
72120;BME280;59993;53.052;18.576;2022-08-21T03:52:17;100307.03;;;20.17;100.00
72120;BME280;59993;53.052;18.576;2022-08-21T03:54:44;100301.81;;;20.16;100.00
72120;BME280;59993;53.052;18.576;2022-08-21T03:57:10;100307.03;;;20.17;100.00
72120;BME280;59993;53.052;18.576;2022-08-21T03:59:36;100318.88;;;20.31;100.00
72120;BME280;59993;53.052;18.576;2022-08-21T04:02:04;100321.91;;;20.28;100.00
72120;BME280;59993;53.052;18.576;2022-08-21T04:04:30;100321.28;;;20.26;100.00
72120;BME280;59993;53.052;18.576;2022-08-21T04:06:57;100317.06;;;20.23;100.00
72120;BME280;59993;53.052;18.576;2022-08-21T04:09:23;100313.56;;;20.23;100.00
72120;BME280;59993;53.052;18.576;2022-08-21T04:11:49;100316.59;;;20.20;100.00
72120;BME280;59993;53.052;18.576;2022-08-21T04:14:16;100317.94;;;20.24;100.00
72120;BME280;59993;53.052;18.576;2022-08-21T04:16:42;100327.97;;;20.30;100.00
72120;BME280;59993;53.052;18.576;2022-08-21T04:19:09;100334.44;;;20.21;100.00
72120;BME280;59993;53.052;18.576;2022-08-21T04:21:39;100335.72;;;20.25;100.00
72120;BME280;59993;53.052;18.576;2022-08-21T04:24:05;100326.28;;;20.29;100.00
72120;BME280;59993;53.052;18.576;2022-08-21T04:26:33;100325.81;;;20.26;100.00
72120;BME280;59993;53.052;18.576;2022-08-21T04:29:00;100330.97;;;20.35;100.00
72120;BME280;59993;53.052;18.576;2022-08-21T04:31:35;100337.41;;;20.26;100.00
72120;BME280;59993;53.052;18.576;2022-08-21T04:34:03;100331.69;;;20.29;100.00
72120;BME280;59993;53.052;18.576;2022-08-21T04:36:30;100351.69;;;20.35;100.00
72120;BME280;59993;53.052;18.576;2022-08-21T04:38:55;100343.72;;;20.41;100.00
72120;BME280;59993;53.052;18.576;2022-08-21T04:41:21;100347.84;;;20.29;100.00
72120;BME280;59993;53.052;18.576;2022-08-21T04:43:46;100350.06;;;20.26;100.00
72120;BME280;59993;53.052;18.576;2022-08-21T04:46:12;100350.47;;;20.37;100.00
72120;BME280;59993;53.052;18.576;2022-08-21T04:48:37;100350.09;;;20.40;100.00
72120;BME280;59993;53.052;18.576;2022-08-21T04:51:06;100359.31;;;20.46;100.00
72120;BME280;59993;53.052;18.576;2022-08-21T04:53:55;100364.59;;;20.39;100.00
72120;BME280;59993;53.052;18.576;2022-08-21T04:56:33;100362.38;;;20.43;100.00
72120;BME280;59993;53.052;18.576;2022-08-21T04:59:04;100357.53;;;20.38;100.00
72120;BME280;59993;53.052;18.576;2022-08-21T05:01:34;100357.53;;;20.38;100.00
72120;BME280;59993;53.052;18.576;2022-08-21T05:04:04;100352.44;;;20.44;100.00
72120;BME280;59993;53.052;18.576;2022-08-21T05:06:33;100354.09;;;20.53;100.00
72120;BME280;59993;53.052;18.576;2022-08-21T05:09:00;100357.97;;;20.50;100.00
72120;BME280;59993;53.052;18.576;2022-08-21T05:11:27;100360.75;;;20.57;100.00
72120;BME280;59993;53.052;18.576;2022-08-21T05:13:52;100364.84;;;20.53;100.00
72120;BME280;59993;53.052;18.576;2022-08-21T05:16:18;100362.44;;;20.58;100.00
72120;BME280;59993;53.052;18.576;2022-08-21T05:18:43;100379.25;;;20.68;100.00
72120;BME280;59993;53.052;18.576;2022-08-21T05:21:09;100373.50;;;20.71;100.00
72120;BME280;59993;53.052;18.576;2022-08-21T05:23:35;100374.97;;;20.74;100.00
72120;BME280;59993;53.052;18.576;2022-08-21T05:26:00;100363.31;;;20.82;100.00
72120;BME280;59993;53.052;18.576;2022-08-21T05:28:26;100376.84;;;20.73;100.00
72120;BME280;59993;53.052;18.576;2022-08-21T05:30:53;100372.41;;;20.81;100.00
72120;BME280;59993;53.052;18.576;2022-08-21T05:33:19;100371.59;;;20.80;100.00
72120;BME280;59993;53.052;18.576;2022-08-21T05:35:44;100372.28;;;20.74;100.00
72120;BME280;59993;53.052;18.576;2022-08-21T05:38:10;100371.81;;;20.70;100.00
72120;BME280;59993;53.052;18.576;2022-08-21T05:40:35;100379.88;;;20.70;100.00
72120;BME280;59993;53.052;18.576;2022-08-21T05:43:02;100386.59;;;20.74;100.00
72120;BME280;59993;53.052;18.576;2022-08-21T05:45:30;100378.88;;;20.71;100.00
72120;BME280;59993;53.052;18.576;2022-08-21T05:47:56;100384.28;;;20.71;100.00
72120;BME280;59993;53.052;18.576;2022-08-21T05:50:22;100387.56;;;20.82;100.00
72120;BME280;59993;53.052;18.576;2022-08-21T05:52:47;100378.41;;;20.91;100.00
72120;BME280;59993;53.052;18.576;2022-08-21T05:55:13;100375.38;;;20.86;100.00
72120;BME280;59993;53.052;18.576;2022-08-21T05:57:38;100377.91;;;20.87;100.00
72120;BME280;59993;53.052;18.576;2022-08-21T06:00:07;100386.13;;;20.94;100.00
72120;BME280;59993;53.052;18.576;2022-08-21T06:02:34;100378.31;;;20.99;100.00
72120;BME280;59993;53.052;18.576;2022-08-21T06:05:00;100380.28;;;21.05;100.00
72120;BME280;59993;53.052;18.576;2022-08-21T06:07:26;100373.78;;;21.15;100.00
72120;BME280;59993;53.052;18.576;2022-08-21T06:09:51;100371.78;;;21.17;100.00
72120;BME280;59993;53.052;18.576;2022-08-21T06:12:17;100359.31;;;21.16;100.00
72120;BME280;59993;53.052;18.576;2022-08-21T06:14:42;100355.03;;;21.21;100.00
72120;BME280;59993;53.052;18.576;2022-08-21T06:17:10;100351.78;;;21.26;100.00
72120;BME280;59993;53.052;18.576;2022-08-21T06:19:37;100358.47;;;21.45;100.00
72120;BME280;59993;53.052;18.576;2022-08-21T06:22:03;100350.56;;;21.43;100.00
72120;BME280;59993;53.052;18.576;2022-08-21T06:24:28;100345.19;;;21.43;100.00
72120;BME280;59993;53.052;18.576;2022-08-21T06:26:54;100343.28;;;21.52;100.00
72120;BME280;59993;53.052;18.576;2022-08-21T06:29:20;100339.25;;;21.63;100.00
72120;BME280;59993;53.052;18.576;2022-08-21T06:31:48;100336.47;;;21.71;100.00
72120;BME280;59993;53.052;18.576;2022-08-21T06:34:14;100333.28;;;21.82;100.00
72120;BME280;59993;53.052;18.576;2022-08-21T06:36:40;100334.03;;;21.76;100.00
72120;BME280;59993;53.052;18.576;2022-08-21T06:39:05;100318.22;;;21.73;100.00
72120;BME280;59993;53.052;18.576;2022-08-21T06:41:31;100325.63;;;22.01;100.00
72120;BME280;59993;53.052;18.576;2022-08-21T06:43:57;100324.25;;;22.27;99.03
72120;BME280;59993;53.052;18.576;2022-08-21T06:46:24;100323.72;;;22.16;99.47
72120;BME280;59993;53.052;18.576;2022-08-21T06:48:50;100323.13;;;22.36;98.42
72120;BME280;59993;53.052;18.576;2022-08-21T06:51:16;100317.41;;;22.46;97.14
72120;BME280;59993;53.052;18.576;2022-08-21T06:53:41;100326.84;;;22.57;96.67
72120;BME280;59993;53.052;18.576;2022-08-21T06:56:07;100328.06;;;22.76;95.89
72120;BME280;59993;53.052;18.576;2022-08-21T06:58:33;100323.22;;;22.71;96.95
72120;BME280;59993;53.052;18.576;2022-08-21T07:00:59;100327.34;;;22.88;95.13
72120;BME280;59993;53.052;18.576;2022-08-21T07:03:29;100324.16;;;23.06;94.47
72120;BME280;59993;53.052;18.576;2022-08-21T07:05:55;100323.81;;;23.16;93.21
72120;BME280;59993;53.052;18.576;2022-08-21T07:08:22;100331.34;;;23.21;92.80
72120;BME280;59993;53.052;18.576;2022-08-21T07:10:48;100334.34;;;23.33;92.14
72120;BME280;59993;53.052;18.576;2022-08-21T07:13:17;100329.56;;;23.76;91.06
72120;BME280;59993;53.052;18.576;2022-08-21T07:15:43;100336.56;;;23.57;91.15
72120;BME280;59993;53.052;18.576;2022-08-21T07:18:08;100332.88;;;23.72;90.19
72120;BME280;59993;53.052;18.576;2022-08-21T07:20:34;100342.75;;;23.45;92.14
72120;BME280;59993;53.052;18.576;2022-08-21T07:23:02;100334.81;;;23.43;91.32
72120;BME280;59993;53.052;18.576;2022-08-21T07:25:29;100329.84;;;23.18;93.02
72120;BME280;59993;53.052;18.576;2022-08-21T07:27:54;100331.13;;;23.51;90.70
72120;BME280;59993;53.052;18.576;2022-08-21T07:30:21;100328.22;;;23.59;90.74
72120;BME280;59993;53.052;18.576;2022-08-21T07:32:47;100331.06;;;23.44;91.57
72120;BME280;59993;53.052;18.576;2022-08-21T07:35:15;100324.13;;;23.28;91.83
72120;BME280;59993;53.052;18.576;2022-08-21T07:37:40;100333.91;;;23.29;92.06
72120;BME280;59993;53.052;18.576;2022-08-21T07:40:06;100334.03;;;23.49;91.38
72120;BME280;59993;53.052;18.576;2022-08-21T07:42:32;100338.53;;;23.42;91.96
72120;BME280;59993;53.052;18.576;2022-08-21T07:44:58;100340.63;;;23.40;90.22
72120;BME280;59993;53.052;18.576;2022-08-21T07:47:23;100332.66;;;23.32;91.57
72120;BME280;59993;53.052;18.576;2022-08-21T07:49:49;100332.50;;;23.40;91.20
72120;BME280;59993;53.052;18.576;2022-08-21T07:52:14;100331.69;;;23.11;92.51
72120;BME280;59993;53.052;18.576;2022-08-21T07:54:40;100340.00;;;23.10;92.87
72120;BME280;59993;53.052;18.576;2022-08-21T07:57:05;100324.97;;;23.07;92.19
72120;BME280;59993;53.052;18.576;2022-08-21T07:59:31;100329.66;;;23.20;92.21
72120;BME280;59993;53.052;18.576;2022-08-21T08:01:56;100332.53;;;23.12;93.00
72120;BME280;59993;53.052;18.576;2022-08-21T08:04:22;100337.66;;;23.35;92.09
72120;BME280;59993;53.052;18.576;2022-08-21T08:06:48;100331.47;;;23.41;90.65
72120;BME280;59993;53.052;18.576;2022-08-21T08:09:14;100336.00;;;23.34;91.57
72120;BME280;59993;53.052;18.576;2022-08-21T08:11:43;100335.56;;;23.30;91.14
72120;BME280;59993;53.052;18.576;2022-08-21T08:14:09;100333.31;;;23.34;91.46
72120;BME280;59993;53.052;18.576;2022-08-21T08:16:35;100334.72;;;23.30;91.21
72120;BME280;59993;53.052;18.576;2022-08-21T08:19:01;100328.94;;;23.33;91.03
72120;BME280;59993;53.052;18.576;2022-08-21T08:21:27;100340.94;;;23.23;91.03
72120;BME280;59993;53.052;18.576;2022-08-21T08:23:56;100332.97;;;23.15;91.77
72120;BME280;59993;53.052;18.576;2022-08-21T08:26:21;100337.09;;;23.11;91.82
72120;BME280;59993;53.052;18.576;2022-08-21T08:28:47;100343.88;;;23.29;90.88
72120;BME280;59993;53.052;18.576;2022-08-21T08:31:13;100348.66;;;23.27;91.50
72120;BME280;59993;53.052;18.576;2022-08-21T08:33:39;100340.63;;;23.12;91.60
72120;BME280;59993;53.052;18.576;2022-08-21T08:36:05;100339.25;;;23.22;90.74
72120;BME280;59993;53.052;18.576;2022-08-21T08:38:31;100346.59;;;23.07;91.93
72120;BME280;59993;53.052;18.576;2022-08-21T08:41:10;100342.53;;;23.11;92.33
72120;BME280;59993;53.052;18.576;2022-08-21T08:43:38;100344.88;;;22.99;91.82
72120;BME280;59993;53.052;18.576;2022-08-21T08:46:12;100337.97;;;22.90;92.20
72120;BME280;59993;53.052;18.576;2022-08-21T08:48:49;100342.78;;;22.95;92.38
72120;BME280;59993;53.052;18.576;2022-08-21T08:51:37;100345.16;;;22.83;93.77
72120;BME280;59993;53.052;18.576;2022-08-21T08:54:08;100339.06;;;22.74;93.13
72120;BME280;59993;53.052;18.576;2022-08-21T08:56:35;100341.44;;;22.84;93.13
72120;BME280;59993;53.052;18.576;2022-08-21T23:40:07;100649.22;;;14.97;100.00
72120;BME280;59993;53.052;18.576;2022-08-21T23:51:10;100643.41;;;14.92;100.00
72120;BME280;59993;53.052;18.576;2022-08-21T23:59:17;100647.66;;;14.95;100.00
